Time;durP1;ratioP1;P1;durP2;ratioP2;P2;SDS_P1;SDS_P2;PMS_P1;PMS_P2;Temp;Humidity;BMP_temperature;BMP_pressure;BME280_temperature;BME280_humidity;BME280_pressure;Samples;Min_cycle;Max_cycle;Signal;HPM_P1;HPM_P2
2022/09/05 00:02:03;;;;;;;5.30;2.20;;;16.50;96.30;;;;;;5069566;28;20051;-67
2022/09/05 00:04:55;;;;;;;7.03;2.58;;;16.50;95.90;;;;;;5084745;28;20024;-67
2022/09/05 00:07:44;;;;;;;4.43;2.42;;;16.50;96.20;;;;;;5086896;27;20028;-67
2022/09/05 00:10:28;;;;;;;6.63;2.78;;;16.40;96.20;;;;;;5087409;28;20154;-67
2022/09/05 00:12:57;;;;;;;5.32;2.42;;;16.40;96.20;;;;;;5088149;28;20110;-65
2022/09/05 00:15:49;;;;;;;3.95;2.33;;;16.30;96.40;;;;;;5088333;27;20024;-66
2022/09/05 00:18:36;;;;;;;4.85;2.20;;;16.30;96.50;;;;;;5112320;28;20019;-66
2022/09/05 00:21:19;;;;;;;5.65;2.35;;;16.10;96.80;;;;;;5110226;28;20011;-66
2022/09/05 00:24:11;;;;;;;4.72;2.40;;;15.90;97.10;;;;;;5114059;27;20027;-66
2022/09/05 00:26:48;;;;;;;4.75;2.58;;;15.80;97.20;;;;;;5107484;28;20058;-66
2022/09/05 00:29:33;;;;;;;5.55;2.80;;;15.70;97.40;;;;;;5109125;28;20023;-67
2022/09/05 00:32:08;;;;;;;4.30;2.90;;;15.80;97.40;;;;;;5109412;28;20027;-67
2022/09/05 00:34:37;;;;;;;5.70;2.40;;;15.90;97.30;;;;;;5104987;27;20027;-66
2022/09/05 00:37:04;;;;;;;7.25;2.80;;;15.90;97.30;;;;;;5104781;28;20049;-66
2022/09/05 00:39:50;;;;;;;5.55;2.38;;;16.00;97.40;;;;;;5107267;28;20062;-66
2022/09/05 00:42:20;;;;;;;4.00;2.40;;;15.90;97.30;;;;;;5118778;27;20107;-66
2022/09/05 00:44:57;;;;;;;6.60;3.20;;;15.80;97.40;;;;;;5104082;28;20031;-67
2022/09/05 00:47:32;;;;;;;3.85;2.20;;;15.70;97.40;;;;;;5114824;28;20031;-67
2022/09/05 00:50:12;;;;;;;5.28;2.60;;;15.60;97.60;;;;;;5111793;28;20370;-67
2022/09/05 00:53:05;;;;;;;5.78;2.28;;;15.50;97.70;;;;;;5115086;28;20042;-67
2022/09/05 00:55:58;;;;;;;4.22;2.33;;;15.30;97.70;;;;;;5082419;28;20051;-66
2022/09/05 00:58:43;;;;;;;4.97;2.25;;;15.30;97.70;;;;;;5109292;28;20061;-66
2022/09/05 01:01:44;;;;;;;5.03;2.50;;;15.20;97.70;;;;;;5114928;28;20308;-67
2022/09/05 01:04:33;;;;;;;7.32;2.60;;;15.00;97.50;;;;;;5079585;28;20036;-68
2022/09/05 01:07:18;;;;;;;5.20;2.90;;;14.80;97.10;;;;;;5113278;28;20080;-67
2022/09/05 01:10:02;;;;;;;4.45;2.60;;;14.60;96.60;;;;;;5110970;28;20027;-68
2022/09/05 01:12:39;;;;;;;5.68;2.45;;;14.70;97.20;;;;;;5103422;28;20031;-68
2022/09/05 01:15:43;;;;;;;6.40;2.80;;;14.90;97.50;;;;;;5113218;28;20025;-67
2022/09/05 01:18:20;;;;;;;6.10;2.63;;;15.00;97.90;;;;;;5100509;28;20082;-67
2022/09/05 01:21:18;;;;;;;6.70;2.40;;;15.20;98.00;;;;;;5111256;28;20020;-67
2022/09/05 01:24:00;;;;;;;6.65;2.83;;;15.40;98.00;;;;;;5109755;28;20338;-67
2022/09/05 01:26:44;;;;;;;7.93;2.70;;;15.40;97.90;;;;;;5100487;28;20032;-68
2022/09/05 01:29:18;;;;;;;7.13;2.55;;;15.40;97.90;;;;;;5109355;28;20028;-69
2022/09/05 01:32:08;;;;;;;4.80;2.60;;;15.30;97.80;;;;;;5110245;28;20050;-67
2022/09/05 01:34:58;;;;;;;7.22;2.58;;;15.20;97.90;;;;;;5107892;28;20383;-68
2022/09/05 01:37:36;;;;;;;5.55;2.50;;;15.10;97.80;;;;;;5111693;28;20420;-68
2022/09/05 01:40:13;;;;;;;3.83;2.25;;;15.10;97.90;;;;;;5108683;28;20054;-68
2022/09/05 01:43:08;;;;;;;4.30;2.45;;;15.10;97.90;;;;;;5112592;28;20055;-68
2022/09/05 01:45:39;;;;;;;;;;;15.10;98.00;;;;;;5108881;28;20027;-67
2022/09/05 01:48:25;;;;;;;5.25;2.47;;;15.10;97.90;;;;;;5117423;28;19918;-68
2022/09/05 01:51:15;;;;;;;5.97;2.50;;;15.20;98.00;;;;;;5110092;28;20044;-67
2022/09/05 01:53:49;;;;;;;5.25;2.75;;;15.20;98.00;;;;;;5098272;28;20028;-68
2022/09/05 01:56:28;;;;;;;;;;;15.20;98.00;;;;;;5092113;28;20059;-68
2022/09/05 01:59:12;;;;;;;4.63;2.50;;;15.10;98.00;;;;;;5106754;28;19953;-68
2022/09/05 02:02:17;;;;;;;6.72;3.10;;;15.20;98.00;;;;;;5112915;27;20047;-68
2022/09/05 02:05:12;;;;;;;6.47;2.45;;;15.30;98.00;;;;;;5110708;28;20044;-68
2022/09/05 02:07:56;;;;;;;4.10;2.13;;;15.70;97.70;;;;;;5110669;28;20027;-67
2022/09/05 02:10:55;;;;;;;4.30;2.35;;;16.00;97.10;;;;;;5104582;28;20015;-68
2022/09/05 02:13:33;;;;;;;4.72;2.20;;;16.10;96.80;;;;;;5113867;28;20157;-68
2022/09/05 02:16:22;;;;;;;4.78;2.50;;;16.30;96.50;;;;;;5113441;28;20447;-67
2022/09/05 02:19:09;;;;;;;5.32;2.33;;;16.40;96.40;;;;;;5119076;27;20038;-68
2022/09/05 02:21:57;;;;;;;7.50;2.47;;;16.20;96.60;;;;;;5112120;27;20382;-68
2022/09/05 02:24:36;;;;;;;4.35;2.30;;;16.00;97.00;;;;;;5112267;28;20102;-68
2022/09/05 02:27:12;;;;;;;5.03;2.65;;;15.90;97.00;;;;;;5110024;27;20348;-68
2022/09/05 02:30:22;;;;;;;8.65;2.78;;;15.80;97.20;;;;;;5115938;27;20031;-68
2022/09/05 02:33:09;;;;;;;4.70;2.53;;;15.80;97.40;;;;;;5087189;27;20055;-68
2022/09/05 02:36:02;;;;;;;4.95;2.78;;;15.60;97.70;;;;;;5111497;28;20020;-68
2022/09/05 02:38:42;;;;;;;5.30;2.80;;;15.40;97.80;;;;;;5109035;27;20432;-68
2022/09/05 02:41:31;;;;;;;4.38;2.47;;;15.30;97.80;;;;;;5111216;28;20020;-67
2022/09/05 02:44:10;;;;;;;6.68;2.30;;;15.10;97.70;;;;;;5108484;27;20106;-67
2022/09/05 02:46:35;;;;;;;4.72;2.55;;;15.00;97.90;;;;;;5113347;27;20032;-68
2022/09/05 02:49:10;;;;;;;5.10;2.58;;;14.70;97.60;;;;;;5110505;28;20039;-68
2022/09/05 02:52:14;;;;;;;5.15;2.75;;;14.60;97.40;;;;;;5111308;28;20027;-68
2022/09/05 02:54:43;;;;;;;6.13;2.80;;;14.50;97.30;;;;;;5106643;27;20023;-67
2022/09/05 02:58:02;;;;;;;6.05;3.60;;;14.40;97.00;;;;;;5109865;28;20403;-68
2022/09/05 03:00:42;;;;;;;5.97;2.85;;;14.30;96.70;;;;;;5066805;27;20039;-68
2022/09/05 03:03:33;;;;;;;5.80;3.03;;;14.20;96.30;;;;;;5108444;27;20081;-68
2022/09/05 03:06:36;;;;;;;5.55;3.00;;;14.00;96.00;;;;;;5113682;28;20039;-67
2022/09/05 03:09:42;;;;;;;7.05;3.20;;;14.00;95.40;;;;;;5112283;27;20024;-66
2022/09/05 03:12:23;;;;;;;5.32;3.38;;;13.90;94.90;;;;;;5111247;28;20315;-67
2022/09/05 03:15:36;;;;;;;8.82;3.35;;;13.70;94.60;;;;;;5113006;28;20077;-65
2022/09/05 03:18:18;;;;;;;6.95;3.20;;;13.60;93.90;;;;;;5072136;28;20046;-69
2022/09/05 03:21:11;;;;;;;5.50;3.50;;;13.50;93.10;;;;;;5113362;28;20043;-68
2022/09/05 03:23:48;;;;;;;6.13;3.28;;;13.40;93.00;;;;;;5096760;28;20027;-68
2022/09/05 03:26:38;;;;;;;6.80;3.30;;;13.30;92.50;;;;;;5115885;27;20419;-69
2022/09/05 03:29:33;;;;;;;5.68;3.20;;;13.30;92.20;;;;;;5114185;28;20095;-68
2022/09/05 03:32:33;;;;;;;8.35;3.88;;;13.30;91.70;;;;;;5112287;28;20027;-68
2022/09/05 03:35:36;;;;;;;6.85;3.58;;;13.20;91.40;;;;;;5106939;27;20032;-67
2022/09/05 03:38:40;;;;;;;9.80;3.53;;;13.10;91.10;;;;;;5113173;28;20027;-68
2022/09/05 03:41:30;;;;;;;6.82;3.72;;;13.00;90.80;;;;;;5025756;28;20030;-68
2022/09/05 03:44:23;;;;;;;6.75;3.55;;;12.90;89.70;;;;;;5033835;28;20025;-69
2022/09/05 03:47:01;;;;;;;6.85;4.00;;;12.90;89.40;;;;;;5096087;28;20109;-68
2022/09/05 03:50:05;;;;;;;9.00;4.93;;;12.80;89.20;;;;;;5115411;28;20433;-68
2022/09/05 03:53:11;;;;;;;8.27;3.85;;;12.80;89.10;;;;;;5109234;27;20386;-69
2022/09/05 03:55:46;;;;;;;7.45;4.07;;;12.80;88.20;;;;;;5116154;27;20297;-68
2022/09/05 03:58:40;;;;;;;5.90;3.67;;;12.80;88.30;;;;;;5110701;28;20020;-68
2022/09/05 04:01:40;;;;;;;7.13;3.70;;;12.80;88.10;;;;;;5111342;28;20024;-68
2022/09/05 04:04:29;;;;;;;5.57;3.75;;;12.80;88.20;;;;;;5094528;28;20439;-68
2022/09/05 04:06:58;;;;;;;6.95;3.97;;;12.70;87.40;;;;;;5108555;27;20059;-68
2022/09/05 04:09:36;;;;;;;7.68;4.53;;;12.70;87.20;;;;;;5110465;27;20029;-68
2022/09/05 04:12:15;;;;;;;6.13;3.60;;;12.80;86.60;;;;;;5111729;28;20023;-68
2022/09/05 04:14:56;;;;;;;7.40;4.53;;;12.80;86.70;;;;;;5105597;27;20027;-69
2022/09/05 04:17:46;;;;;;;7.22;4.72;;;12.80;85.90;;;;;;5109585;27;20023;-68
2022/09/05 04:20:32;;;;;;;8.65;5.55;;;12.90;84.70;;;;;;5091521;28;20354;-68
2022/09/05 04:23:13;;;;;;;9.57;4.72;;;13.00;84.90;;;;;;5108505;28;20036;-69
2022/09/05 04:26:01;;;;;;;6.75;4.88;;;13.10;84.10;;;;;;5112483;28;20031;-69
2022/09/05 04:28:32;;;;;;;7.72;4.43;;;13.30;85.20;;;;;;5109162;28;20030;-68
2022/09/05 04:31:00;;;;;;;7.38;4.38;;;13.40;86.00;;;;;;5109857;28;20024;-68
2022/09/05 04:34:07;;;;;;;9.43;4.13;;;13.50;87.60;;;;;;5112123;28;20073;-68
2022/09/05 04:36:35;;;;;;;6.53;4.00;;;13.50;88.70;;;;;;5090838;28;20031;-69
2022/09/05 04:39:18;;;;;;;6.90;4.28;;;13.50;88.80;;;;;;5110085;28;20412;-68
2022/09/05 04:41:52;;;;;;;10.25;4.03;;;13.50;89.20;;;;;;5096070;28;20110;-68
2022/09/05 04:44:26;;;;;;;6.90;4.18;;;13.40;89.50;;;;;;5102168;28;20050;-68
2022/09/05 04:47:03;;;;;;;;;;;13.40;88.30;;;;;;5092047;28;20089;-69
2022/09/05 04:49:40;;;;;;;6.63;4.35;;;13.50;88.90;;;;;;5110633;28;19943;-68
2022/09/05 04:52:41;;;;;;;6.68;4.03;;;13.60;89.70;;;;;;5104955;27;20056;-68
2022/09/05 04:55:17;;;;;;;7.95;4.63;;;13.60;89.80;;;;;;5098091;28;20043;-69
2022/09/05 04:57:50;;;;;;;6.97;4.13;;;13.70;89.40;;;;;;5111035;28;20106;-68
2022/09/05 05:00:37;;;;;;;8.13;4.13;;;13.80;89.80;;;;;;5110091;28;20297;-69
2022/09/05 05:03:16;;;;;;;6.45;3.72;;;14.00;90.90;;;;;;5094183;28;20028;-69
2022/09/05 05:05:47;;;;;;;7.55;4.03;;;14.10;92.20;;;;;;5101497;28;20031;-69
2022/09/05 05:08:22;;;;;;;5.50;3.83;;;14.20;92.50;;;;;;5122001;28;20034;-69
2022/09/05 05:10:52;;;;;;;7.15;3.80;;;14.30;93.50;;;;;;5105607;28;20028;-69
2022/09/05 05:13:45;;;;;;;6.68;4.00;;;14.30;94.00;;;;;;5111579;28;20045;-69
2022/09/05 05:16:17;;;;;;;7.90;3.70;;;14.20;94.00;;;;;;5111066;28;20023;-69
2022/09/05 05:18:52;;;;;;;6.43;3.28;;;14.10;94.30;;;;;;5101363;28;20028;-69
2022/09/05 05:21:21;;;;;;;5.57;3.67;;;14.00;93.80;;;;;;5108517;28;20316;-69
2022/09/05 05:23:54;;;;;;;5.60;3.10;;;14.00;93.60;;;;;;5110228;28;20027;-69
2022/09/05 05:26:34;;;;;;;8.85;3.47;;;14.00;93.00;;;;;;5113515;28;20031;-68
2022/09/05 05:29:23;;;;;;;5.43;3.60;;;14.00;92.40;;;;;;5100876;28;20023;-68
2022/09/05 05:32:00;;;;;;;6.55;3.35;;;14.20;92.10;;;;;;5107826;28;20450;-68
2022/09/05 05:34:31;;;;;;;5.90;3.40;;;14.30;92.60;;;;;;5109454;28;20032;-69
2022/09/05 05:37:02;;;;;;;6.10;3.35;;;14.40;93.60;;;;;;5102952;28;20069;-69
2022/09/05 05:39:35;;;;;;;5.97;3.50;;;14.50;94.40;;;;;;5090581;27;20024;-68
2022/09/05 05:42:05;;;;;;;5.43;2.83;;;14.50;94.40;;;;;;5108290;27;20147;-69
2022/09/05 05:44:34;;;;;;;7.20;3.17;;;14.50;95.00;;;;;;5116732;27;20023;-69
2022/09/05 05:47:17;;;;;;;6.55;3.72;;;14.60;95.00;;;;;;5117946;28;20020;-68
2022/09/05 05:50:03;;;;;;;6.03;3.95;;;14.70;94.80;;;;;;5119091;28;20028;-69
2022/09/05 05:52:47;;;;;;;7.50;3.13;;;14.80;94.90;;;;;;5118936;28;20084;-69
2022/09/05 05:55:46;;;;;;;5.30;3.45;;;15.00;95.30;;;;;;5118752;27;20031;-69
2022/09/05 05:58:37;;;;;;;4.82;2.78;;;15.20;96.00;;;;;;5111481;27;20117;-68
2022/09/05 06:01:14;;;;;;;5.00;2.85;;;15.40;96.60;;;;;;5115764;28;20123;-68
2022/09/05 06:04:02;;;;;;;4.72;2.97;;;15.50;97.50;;;;;;5118585;27;20100;-67
2022/09/05 06:06:42;;;;;;;7.13;3.08;;;15.60;97.30;;;;;;5117133;28;20071;-67
2022/09/05 06:09:29;;;;;;;4.85;2.78;;;15.80;97.40;;;;;;5115315;28;20032;-67
2022/09/05 06:12:19;;;;;;;7.95;2.75;;;16.10;97.80;;;;;;5119128;28;20036;-67
2022/09/05 06:15:07;;;;;;;6.00;2.83;;;16.70;98.00;;;;;;5115392;28;20034;-69
2022/09/05 06:17:41;;;;;;;5.60;3.00;;;17.30;98.00;;;;;;5098592;28;20047;-68
2022/09/05 06:20:31;;;;;;;5.50;2.42;;;17.90;98.00;;;;;;5114621;28;20044;-69
2022/09/05 06:23:24;;;;;;;5.30;2.72;;;18.50;96.80;;;;;;5114735;28;20020;-68
2022/09/05 06:26:08;;;;;;;6.00;2.67;;;18.80;95.60;;;;;;5115169;27;20055;-69
2022/09/05 06:28:55;;;;;;;;;;;18.70;95.30;;;;;;5124365;27;20031;-69
2022/09/05 06:31:58;;;;;;;4.78;2.85;;;18.60;95.60;;;;;;5115548;27;19911;-68
2022/09/05 06:35:12;;;;;;;6.40;3.10;;;18.40;96.40;;;;;;5080420;28;20421;-68
2022/09/05 06:38:00;;;;;;;4.82;2.95;;;18.20;96.60;;;;;;5112677;28;20027;-69
2022/09/05 06:40:47;;;;;;;4.25;2.38;;;18.20;96.70;;;;;;5116015;27;20099;-69
2022/09/05 06:43:44;;;;;;;6.40;2.80;;;18.30;96.80;;;;;;5104799;28;20424;-69
2022/09/05 06:46:29;;;;;;;6.72;2.67;;;18.50;96.70;;;;;;5112700;27;20125;-69
2022/09/05 06:49:16;;;;;;;4.47;2.85;;;18.60;96.60;;;;;;5112550;27;20020;-69
2022/09/05 06:52:09;;;;;;;5.97;2.90;;;18.80;96.40;;;;;;5118426;28;20015;-69
2022/09/05 06:54:41;;;;;;;4.78;2.95;;;18.90;96.10;;;;;;5116134;28;20027;-69
2022/09/05 06:57:44;;;;;;;5.28;2.70;;;19.00;95.70;;;;;;5117493;28;20106;-69
2022/09/05 07:00:23;;;;;;;5.97;2.63;;;19.10;95.40;;;;;;5118441;28;20024;-69
2022/09/05 07:03:03;;;;;;;6.35;2.80;;;19.20;95.30;;;;;;5117180;28;20072;-69
2022/09/05 07:05:39;;;;;;;5.05;2.85;;;19.10;95.10;;;;;;5107672;27;20043;-69
2022/09/05 07:08:19;;;;;;;7.35;3.63;;;19.00;95.20;;;;;;5101889;28;20095;-68
2022/09/05 07:11:03;;;;;;;5.88;3.00;;;18.90;95.50;;;;;;5112048;28;20028;-69
2022/09/05 07:13:54;;;;;;;5.80;2.78;;;19.10;95.50;;;;;;5097103;28;20032;-69
2022/09/05 07:16:41;;;;;;;4.82;2.50;;;19.20;94.90;;;;;;5097495;28;20040;-69
2022/09/05 07:19:27;;;;;;;5.45;2.50;;;19.30;94.40;;;;;;5096693;28;20103;-69
2022/09/05 07:22:15;;;;;;;4.32;2.42;;;19.50;93.90;;;;;;5096735;28;20177;-68
2022/09/05 07:24:44;;;;;;;5.15;2.75;;;19.70;93.80;;;;;;5105389;27;20145;-68
2022/09/05 07:27:23;;;;;;;4.70;2.42;;;19.80;94.00;;;;;;5112115;28;20031;-69
2022/09/05 07:29:55;;;;;;;4.80;2.38;;;19.90;93.50;;;;;;5097407;28;20106;-68
2022/09/05 07:32:23;;;;;;;6.18;2.50;;;19.90;93.20;;;;;;5098408;28;20023;-68
2022/09/05 07:34:50;;;;;;;5.15;2.40;;;19.90;93.30;;;;;;5105155;28;20382;-68
2022/09/05 07:37:35;;;;;;;4.20;2.65;;;20.00;93.20;;;;;;5112501;28;20405;-68
2022/09/05 07:40:08;;;;;;;5.70;2.85;;;20.10;93.10;;;;;;5110636;28;20072;-68
2022/09/05 07:42:41;;;;;;;4.60;2.60;;;20.30;92.70;;;;;;5112412;28;20047;-69
2022/09/05 07:45:14;;;;;;;6.95;3.00;;;20.40;92.50;;;;;;5103774;28;20024;-68
2022/09/05 07:47:50;;;;;;;5.45;2.95;;;20.40;92.70;;;;;;5109992;28;20017;-68
2022/09/05 07:50:16;;;;;;;6.03;2.90;;;20.60;92.70;;;;;;5096996;28;20101;-68
2022/09/05 07:52:44;;;;;;;5.45;2.60;;;20.70;92.30;;;;;;5097299;28;20469;-69
2022/09/05 07:55:30;;;;;;;4.55;2.50;;;20.80;92.20;;;;;;5097514;28;20467;-68
2022/09/05 07:57:58;;;;;;;6.82;2.88;;;20.90;91.40;;;;;;5096181;28;20374;-69
2022/09/05 08:00:25;;;;;;;5.15;2.65;;;21.10;91.90;;;;;;5095333;28;20115;-69
2022/09/05 08:02:51;;;;;;;5.45;2.50;;;21.50;91.50;;;;;;5099599;28;20026;-69
2022/09/05 08:05:19;;;;;;;6.00;2.50;;;22.20;90.00;;;;;;5098214;28;20453;-68
2022/09/05 08:07:51;;;;;;;5.82;2.10;;;23.30;85.90;;;;;;5104181;28;20054;-69
2022/09/05 08:10:23;;;;;;;5.53;2.10;;;24.10;83.80;;;;;;5091571;28;20035;-68
2022/09/05 08:12:57;;;;;;;6.88;2.42;;;24.90;81.60;;;;;;5095803;28;20028;-68
2022/09/05 08:15:28;;;;;;;4.68;1.95;;;25.60;79.60;;;;;;5095352;28;20020;-69
2022/09/05 08:18:14;;;;;;;6.07;2.25;;;26.10;77.50;;;;;;5094802;28;20020;-69
2022/09/05 08:20:51;;;;;;;4.65;2.00;;;26.90;75.80;;;;;;5096001;28;20050;-69
2022/09/05 08:23:55;;;;;;;5.05;1.80;;;27.80;73.20;;;;;;5098590;28;20213;-69
2022/09/05 08:26:39;;;;;;;5.50;2.08;;;28.00;72.40;;;;;;5101019;28;20039;-69
2022/09/05 08:29:13;;;;;;;6.82;1.77;;;28.10;72.20;;;;;;5100194;28;20032;-69
2022/09/05 08:32:00;;;;;;;5.78;1.90;;;27.60;72.30;;;;;;5092102;28;20050;-69
2022/09/05 08:34:44;;;;;;;3.17;1.67;;;27.10;74.20;;;;;;5114094;28;20405;-69
2022/09/05 08:37:11;;;;;;;;;;;27.60;74.00;;;;;;5101114;28;20413;-68
2022/09/05 08:39:38;;;;;;;4.53;2.30;;;27.80;72.50;;;;;;5102976;28;20255;-69
2022/09/05 08:42:20;;;;;;;4.20;1.90;;;28.10;71.70;;;;;;5101028;28;20081;-69
2022/09/05 08:45:02;;;;;;;5.10;1.92;;;28.20;70.70;;;;;;5096434;28;20125;-66
2022/09/05 08:47:43;;;;;;;3.65;1.80;;;28.60;70.20;;;;;;5095496;28;20081;-68
2022/09/05 08:50:26;;;;;;;3.30;1.50;;;29.30;68.80;;;;;;5095016;28;20028;-69
2022/09/05 08:53:12;;;;;;;5.72;2.08;;;30.20;67.10;;;;;;5101567;28;20031;-69
2022/09/05 08:56:09;;;;;;;4.95;1.70;;;31.10;64.40;;;;;;5098039;28;20020;-68
2022/09/05 08:58:55;;;;;;;4.65;1.58;;;31.30;64.40;;;;;;5095112;28;20025;-68
2022/09/05 09:01:24;;;;;;;4.32;1.80;;;31.50;64.70;;;;;;5093311;28;20095;-67
2022/09/05 09:04:08;;;;;;;5.72;1.80;;;30.80;65.00;;;;;;5097627;28;20042;-67
2022/09/05 09:07:05;;;;;;;4.28;1.80;;;31.10;65.40;;;;;;5113400;28;20039;-67
2022/09/05 09:10:04;;;;;;;5.20;1.88;;;31.20;65.60;;;;;;5114982;28;20055;-69
2022/09/05 09:12:48;;;;;;;3.80;1.60;;;30.70;66.10;;;;;;5118999;28;20032;-68
2022/09/05 09:15:34;;;;;;;3.40;1.60;;;30.80;66.20;;;;;;5120448;28;20416;-68
2022/09/05 09:18:17;;;;;;;4.65;1.80;;;30.90;66.30;;;;;;5117932;27;20031;-68
2022/09/05 09:20:56;;;;;;;4.47;1.80;;;30.90;67.00;;;;;;5133732;27;20055;-68
2022/09/05 09:23:51;;;;;;;3.53;1.60;;;31.70;65.50;;;;;;5117792;28;20181;-69
2022/09/05 09:26:27;;;;;;;3.80;1.50;;;31.30;65.60;;;;;;5117124;28;20040;-68
2022/09/05 09:29:01;;;;;;;5.82;1.80;;;30.70;67.40;;;;;;5120426;28;20030;-68
2022/09/05 09:32:03;;;;;;;4.45;1.98;;;29.60;69.10;;;;;;5117325;28;20375;-70
2022/09/05 09:35:07;;;;;;;5.95;1.70;;;29.70;68.50;;;;;;5130947;27;20113;-69
2022/09/05 09:37:40;;;;;;;5.47;2.03;;;30.10;68.90;;;;;;5078258;28;20035;-68
2022/09/05 09:40:44;;;;;;;4.20;1.95;;;30.50;67.00;;;;;;5117019;28;20039;-69
2022/09/05 09:43:19;;;;;;;3.92;1.70;;;29.90;69.10;;;;;;5119805;28;20023;-68
2022/09/05 09:46:36;;;;;;;4.43;2.03;;;30.00;68.90;;;;;;5118519;28;20020;-70
2022/09/05 09:49:30;;;;;;;8.75;2.15;;;29.80;68.80;;;;;;5072492;28;20118;-68
2022/09/05 09:52:14;;;;;;;8.10;2.15;;;29.90;69.20;;;;;;5118575;28;20362;-69
2022/09/05 09:55:12;;;;;;;4.93;1.83;;;29.90;69.50;;;;;;5117434;28;20031;-69
2022/09/05 09:57:46;;;;;;;4.18;2.10;;;30.40;67.60;;;;;;5100982;28;20340;-69
2022/09/05 10:00:19;;;;;;;7.07;1.75;;;29.50;69.30;;;;;;5117459;27;20028;-68
2022/09/05 10:03:14;;;;;;;4.22;1.92;;;29.30;70.80;;;;;;5129445;27;20630;-68
2022/09/05 10:05:42;;;;;;;6.72;2.20;;;30.00;69.00;;;;;;5115021;28;20040;-71
2022/09/05 10:08:13;;;;;;;5.30;2.28;;;30.00;68.50;;;;;;5116769;28;20062;-70
2022/09/05 10:11:17;;;;;;;3.25;1.63;;;29.30;70.20;;;;;;5111658;28;20019;-69
2022/09/05 10:13:45;;;;;;;4.05;1.90;;;29.20;68.70;;;;;;5115254;28;20298;-69
2022/09/05 10:16:26;;;;;;;3.95;2.10;;;29.60;68.00;;;;;;5116606;28;20027;-69
2022/09/05 10:19:19;;;;;;;3.40;1.55;;;30.00;65.50;;;;;;5113958;28;20027;-69
2022/09/05 10:22:12;;;;;;;4.70;2.30;;;30.40;65.00;;;;;;5113443;28;20024;-69
2022/09/05 10:25:06;;;;;;;4.53;2.13;;;30.20;66.00;;;;;;5117395;28;20039;-69
2022/09/05 10:27:56;;;;;;;5.15;2.00;;;30.60;64.80;;;;;;5084191;28;20404;-69
2022/09/05 10:30:35;;;;;;;3.92;2.10;;;30.70;63.30;;;;;;5114999;28;20036;-69
2022/09/05 10:33:14;;;;;;;4.00;1.80;;;31.10;63.80;;;;;;5117076;28;20103;-69
2022/09/05 10:35:43;;;;;;;4.30;1.90;;;30.90;63.60;;;;;;5117408;28;20027;-69
2022/09/05 10:38:15;;;;;;;4.28;2.50;;;30.70;65.10;;;;;;5116213;28;20381;-69
2022/09/05 10:40:47;;;;;;;4.57;2.00;;;31.30;65.10;;;;;;5114854;28;20019;-69
2022/09/05 10:43:20;;;;;;;5.30;1.80;;;31.50;62.60;;;;;;5098100;28;20681;-69
2022/09/05 10:46:01;;;;;;;;;;;31.90;62.50;;;;;;5096654;28;20309;-69
2022/09/05 10:48:53;;;;;;;3.70;1.98;;;32.10;60.80;;;;;;5116001;28;19912;-69
2022/09/05 10:51:29;;;;;;;4.30;1.88;;;32.80;60.00;;;;;;5096788;28;20024;-69
2022/09/05 10:54:30;;;;;;;4.85;2.10;;;32.60;59.40;;;;;;5095605;28;20024;-68
2022/09/05 10:57:37;;;;;;;5.22;2.10;;;32.00;60.50;;;;;;5094545;28;20039;-69
2022/09/05 11:00:21;;;;;;;6.28;2.00;;;31.20;61.20;;;;;;5103947;28;20040;-69
2022/09/05 11:02:55;;;;;;;3.85;1.95;;;31.50;61.30;;;;;;5115723;28;20027;-69
2022/09/05 11:05:27;;;;;;;4.15;1.85;;;32.20;59.90;;;;;;5055804;28;1147270;-67
2022/09/05 11:07:52;;;;;;;3.75;1.60;;;32.70;59.90;;;;;;5115722;28;20023;-68
2022/09/05 11:10:33;;;;;;;4.28;2.00;;;32.40;58.60;;;;;;5115168;28;20327;-68
2022/09/05 11:13:21;;;;;;;5.82;2.00;;;32.30;58.40;;;;;;5116502;28;20033;-68
2022/09/05 11:16:28;;;;;;;3.47;1.80;;;32.20;59.70;;;;;;5116394;28;20339;-68
2022/09/05 11:18:56;;;;;;;6.20;2.10;;;31.90;58.40;;;;;;5103054;28;20047;-67
2022/09/05 11:21:46;;;;;;;4.50;1.75;;;30.90;61.90;;;;;;5103899;28;20026;-68
2022/09/05 11:24:45;;;;;;;4.35;1.73;;;31.20;60.90;;;;;;5115045;28;20030;-68
2022/09/05 11:27:33;;;;;;;3.58;1.50;;;31.30;57.90;;;;;;5107524;28;20063;-68
2022/09/05 11:30:07;;;;;;;3.72;1.92;;;31.10;60.30;;;;;;5115364;28;20365;-69
2022/09/05 11:32:32;;;;;;;;;;;31.40;59.70;;;;;;5096551;28;20484;-69
2022/09/05 11:35:26;;;;;;;4.55;2.03;;;31.70;59.50;;;;;;5115222;28;19998;-69
2022/09/05 11:37:57;;;;;;;4.70;1.85;;;32.30;57.60;;;;;;5112277;28;20355;-68
2022/09/05 11:40:54;;;;;;;3.80;1.80;;;32.30;57.60;;;;;;5111712;28;20080;-68
2022/09/05 11:43:41;;;;;;;3.92;1.90;;;31.40;58.40;;;;;;5116084;28;20027;-68
2022/09/05 11:46:48;;;;;;;7.57;2.20;;;31.00;58.70;;;;;;5117168;28;20031;-68
2022/09/05 11:49:17;;;;;;;4.45;1.70;;;30.90;59.00;;;;;;5067120;28;20043;-67
2022/09/05 11:52:09;;;;;;;3.90;1.90;;;31.30;57.90;;;;;;5124217;27;20317;-67
2022/09/05 11:55:07;;;;;;;4.70;1.77;;;31.50;55.70;;;;;;5095648;28;20024;-67
2022/09/05 11:57:54;;;;;;;3.60;1.70;;;31.80;56.20;;;;;;5101292;28;20048;-67
2022/09/05 12:01:02;;;;;;;4.85;1.90;;;31.70;55.00;;;;;;5116802;28;20049;-67
2022/09/05 12:04:07;;;;;;;3.63;1.70;;;31.90;54.80;;;;;;5113675;28;20023;-67
2022/09/05 12:07:02;;;;;;;3.70;1.90;;;31.70;56.70;;;;;;5114650;28;20398;-68
2022/09/05 12:09:38;;;;;;;3.08;1.55;;;31.30;56.10;;;;;;5086077;28;20035;-69
2022/09/05 12:12:25;;;;;;;4.60;1.73;;;31.20;56.40;;;;;;5114710;28;20110;-69
2022/09/05 12:15:15;;;;;;;4.28;1.92;;;31.50;57.40;;;;;;5116963;28;20030;-68
2022/09/05 12:17:53;;;;;;;3.55;1.80;;;31.70;56.70;;;;;;5116058;28;20020;-68
2022/09/05 12:20:43;;;;;;;3.60;1.73;;;31.90;54.70;;;;;;5116752;28;20107;-69
2022/09/05 12:23:27;;;;;;;4.55;1.85;;;31.90;56.60;;;;;;5112921;27;20043;-68
2022/09/05 12:26:22;;;;;;;3.50;1.75;;;31.60;55.50;;;;;;5113192;27;20035;-68
2022/09/05 12:28:53;;;;;;;3.90;1.70;;;31.20;56.80;;;;;;5114479;28;20126;-68
2022/09/05 12:31:59;;;;;;;4.05;1.80;;;31.30;57.80;;;;;;5111842;27;20517;-68
2022/09/05 12:34:56;;;;;;;3.72;1.80;;;31.70;58.70;;;;;;5088327;27;20075;-69
2022/09/05 12:37:21;;;;;;;3.50;1.70;;;31.50;55.30;;;;;;5115265;27;20290;-68
2022/09/05 12:40:08;;;;;;;3.60;1.60;;;31.00;56.30;;;;;;5116152;27;20095;-68
2022/09/05 12:42:53;;;;;;;3.00;1.60;;;30.40;56.30;;;;;;5116649;27;20050;-68
2022/09/05 12:45:49;;;;;;;3.58;1.70;;;29.60;56.20;;;;;;5100521;28;20416;-69
2022/09/05 12:48:30;;;;;;;4.15;1.77;;;29.30;55.70;;;;;;5114411;28;20396;-68
2022/09/05 12:51:18;;;;;;;5.65;1.65;;;29.30;56.20;;;;;;5116575;28;20452;-68
2022/09/05 12:53:56;;;;;;;4.55;1.73;;;29.80;55.00;;;;;;5113197;28;20031;-68
2022/09/05 12:56:21;;;;;;;4.68;1.65;;;30.40;54.10;;;;;;5114845;28;20047;-68
2022/09/05 12:58:50;;;;;;;3.40;1.52;;;30.50;52.40;;;;;;5114292;28;20031;-68
2022/09/05 13:01:26;;;;;;;3.53;1.65;;;30.40;52.20;;;;;;5116226;28;20023;-68
2022/09/05 13:04:18;;;;;;;3.80;1.70;;;30.70;53.60;;;;;;5112977;28;20028;-68
2022/09/05 13:06:57;;;;;;;4.85;1.48;;;30.80;52.00;;;;;;5134913;28;20031;-68
2022/09/05 13:10:00;;;;;;;2.70;1.40;;;30.90;52.10;;;;;;5119705;28;20020;-69
2022/09/05 13:12:49;;;;;;;3.72;1.45;;;31.20;51.60;;;;;;5112497;28;20122;-68
2022/09/05 13:15:35;;;;;;;3.00;1.55;;;31.30;52.30;;;;;;5119578;28;20134;-68
2022/09/05 13:18:12;;;;;;;3.45;1.58;;;31.30;53.40;;;;;;5109194;28;20034;-68
2022/09/05 13:20:54;;;;;;;4.03;1.48;;;31.60;51.10;;;;;;5114900;28;20460;-68
2022/09/05 13:23:45;;;;;;;3.47;1.50;;;31.50;52.30;;;;;;5116298;28;20024;-68
2022/09/05 13:26:40;;;;;;;3.50;1.30;;;31.90;51.80;;;;;;5114695;28;20020;-68
2022/09/05 13:29:18;;;;;;;3.55;1.38;;;31.80;51.50;;;;;;5112042;28;20115;-68
2022/09/05 13:31:52;;;;;;;4.20;1.58;;;31.80;50.90;;;;;;5114081;28;20015;-68
2022/09/05 13:34:42;;;;;;;3.15;1.40;;;31.80;50.40;;;;;;5116004;28;20042;-68
2022/09/05 13:37:23;;;;;;;4.63;1.40;;;32.20;50.60;;;;;;5113609;28;20016;-68
2022/09/05 13:39:58;;;;;;;3.80;1.38;;;32.00;51.20;;;;;;5113935;28;20016;-68
2022/09/05 13:42:29;;;;;;;4.78;1.33;;;32.80;50.50;;;;;;5115721;28;20034;-68
2022/09/05 13:44:59;;;;;;;3.65;1.42;;;32.80;48.40;;;;;;5114473;28;20020;-68
2022/09/05 13:47:36;;;;;;;4.82;1.30;;;32.40;47.90;;;;;;5112476;28;20031;-68
2022/09/05 13:50:25;;;;;;;6.50;1.50;;;32.90;48.10;;;;;;5112926;28;20095;-67
2022/09/05 13:52:53;;;;;;;2.75;1.30;;;32.90;47.20;;;;;;5115682;28;20027;-68
2022/09/05 13:55:51;;;;;;;3.58;1.40;;;32.60;47.90;;;;;;5112874;28;20305;-68
2022/09/05 13:58:52;;;;;;;5.50;1.70;;;32.00;50.00;;;;;;5109351;28;20298;-68
2022/09/05 14:54:55;;;;;;;4.50;1.40;;;30.10;59.50;;;;;;5114049;27;1303991;-68
2022/09/05 14:57:26;;;;;;;6.50;1.80;;;30.70;62.30;;;;;;5150561;27;20369;-68
2022/09/05 14:59:56;;;;;;;3.30;1.70;;;30.60;58.90;;;;;;5133333;28;20106;-69
2022/09/05 15:02:31;;;;;;;3.75;1.60;;;30.50;58.90;;;;;;5133458;27;20031;-68
2022/09/05 15:05:25;;;;;;;5.15;1.67;;;31.50;57.10;;;;;;5134234;28;20381;-69
2022/09/05 15:08:04;;;;;;;5.63;1.60;;;34.20;55.00;;;;;;5127493;27;20057;-69